sensor_id;sensor_type;location;lat;lon;timestamp;pressure;altitude;pressure_sealevel;temperature;humidity
16821;BME280;8527;49.740;6.604;2023-04-08T00:04:18;100218.41;;;9.20;90.11
16821;BME280;8527;49.740;6.604;2023-04-08T00:09:17;100213.97;;;9.11;92.22
16821;BME280;8527;49.740;6.604;2023-04-08T00:14:20;100216.19;;;9.15;90.20
16821;BME280;8527;49.740;6.604;2023-04-08T00:19:21;100215.81;;;9.10;91.20
16821;BME280;8527;49.740;6.604;2023-04-08T00:24:25;100214.66;;;9.13;90.49
16821;BME280;8527;49.740;6.604;2023-04-08T00:29:23;100217.91;;;9.07;91.55
16821;BME280;8527;49.740;6.604;2023-04-08T00:34:27;100217.25;;;8.95;91.76
16821;BME280;8527;49.740;6.604;2023-04-08T00:39:26;100216.69;;;9.01;90.32
16821;BME280;8527;49.740;6.604;2023-04-08T00:44:27;100218.66;;;8.99;90.73
16821;BME280;8527;49.740;6.604;2023-04-08T00:49:31;100217.13;;;8.96;91.04
16821;BME280;8527;49.740;6.604;2023-04-08T00:54:32;100216.19;;;8.88;90.92
16821;BME280;8527;49.740;6.604;2023-04-08T00:59:32;100223.16;;;8.89;91.56
16821;BME280;8527;49.740;6.604;2023-04-08T01:04:48;100220.56;;;8.79;91.72
16821;BME280;8527;49.740;6.604;2023-04-08T01:09:55;100223.59;;;8.84;91.37
16821;BME280;8527;49.740;6.604;2023-04-08T01:20:01;100227.78;;;8.77;91.18
16821;BME280;8527;49.740;6.604;2023-04-08T01:25:11;100231.56;;;8.74;91.98
16821;BME280;8527;49.740;6.604;2023-04-08T01:30:18;100232.13;;;8.68;90.59
16821;BME280;8527;49.740;6.604;2023-04-08T01:35:21;100231.28;;;8.77;89.89
16821;BME280;8527;49.740;6.604;2023-04-08T01:40:20;100230.84;;;8.72;90.92
16821;BME280;8527;49.740;6.604;2023-04-08T01:45:22;100231.16;;;8.69;89.90
16821;BME280;8527;49.740;6.604;2023-04-08T01:50:22;100223.94;;;8.61;91.16
16821;BME280;8527;49.740;6.604;2023-04-08T01:55:23;100230.50;;;8.57;92.28
16821;BME280;8527;49.740;6.604;2023-04-08T02:00:27;100228.00;;;8.55;92.25
16821;BME280;8527;49.740;6.604;2023-04-08T02:05:27;100227.00;;;8.56;91.47
16821;BME280;8527;49.740;6.604;2023-04-08T02:10:26;100228.16;;;8.54;91.87
16821;BME280;8527;49.740;6.604;2023-04-08T02:15:28;100233.16;;;8.57;91.40
16821;BME280;8527;49.740;6.604;2023-04-08T02:20:36;100228.00;;;8.55;90.21
16821;BME280;8527;49.740;6.604;2023-04-08T02:25:43;100233.84;;;8.49;92.18
16821;BME280;8527;49.740;6.604;2023-04-08T02:30:49;100242.59;;;8.50;92.31
16821;BME280;8527;49.740;6.604;2023-04-08T02:35:48;100246.78;;;8.52;90.56
16821;BME280;8527;49.740;6.604;2023-04-08T02:40:49;100246.78;;;8.52;90.34
16821;BME280;8527;49.740;6.604;2023-04-08T02:45:51;100249.00;;;8.47;90.96
16821;BME280;8527;49.740;6.604;2023-04-08T02:50:49;100245.50;;;8.47;90.91
16821;BME280;8527;49.740;6.604;2023-04-08T02:55:47;100247.59;;;8.43;91.01
16821;BME280;8527;49.740;6.604;2023-04-08T03:00:52;100245.53;;;8.37;89.72
16821;BME280;8527;49.740;6.604;2023-04-08T03:05:54;100243.03;;;8.35;91.90
16821;BME280;8527;49.740;6.604;2023-04-08T03:10:56;100256.13;;;8.37;91.80
16821;BME280;8527;49.740;6.604;2023-04-08T03:15:57;100243.31;;;8.32;91.20
16821;BME280;8527;49.740;6.604;2023-04-08T03:20:55;100243.88;;;8.26;91.94
16821;BME280;8527;49.740;6.604;2023-04-08T03:25:55;100242.34;;;8.13;92.47
16821;BME280;8527;49.740;6.604;2023-04-08T03:30:59;100248.50;;;8.14;93.17
16821;BME280;8527;49.740;6.604;2023-04-08T03:35:58;100250.69;;;8.09;91.99
16821;BME280;8527;49.740;6.604;2023-04-08T03:40:59;100255.03;;;8.10;91.47
16821;BME280;8527;49.740;6.604;2023-04-08T03:46:04;100263.78;;;8.00;92.37
16821;BME280;8527;49.740;6.604;2023-04-08T03:51:03;100252.81;;;8.05;91.19
16821;BME280;8527;49.740;6.604;2023-04-08T03:56:05;100249.31;;;8.05;90.71
16821;BME280;8527;49.740;6.604;2023-04-08T04:01:12;100250.59;;;8.00;90.15
16821;BME280;8527;49.740;6.604;2023-04-08T04:06:13;100260.59;;;7.97;90.04
16821;BME280;8527;49.740;6.604;2023-04-08T04:11:11;100256.00;;;7.89;90.91
16821;BME280;8527;49.740;6.604;2023-04-08T04:16:12;100257.25;;;7.95;90.58
16821;BME280;8527;49.740;6.604;2023-04-08T04:21:11;100253.47;;;7.78;90.68
16821;BME280;8527;49.740;6.604;2023-04-08T04:26:12;100262.38;;;7.77;91.26
16821;BME280;8527;49.740;6.604;2023-04-08T04:31:20;100255.72;;;7.82;91.41
16821;BME280;8527;49.740;6.604;2023-04-08T04:36:20;100263.66;;;7.82;91.40
16821;BME280;8527;49.740;6.604;2023-04-08T04:41:18;100274.34;;;7.81;91.53
16821;BME280;8527;49.740;6.604;2023-04-08T04:46:20;100275.31;;;7.89;91.14
16821;BME280;8527;49.740;6.604;2023-04-08T04:51:22;100280.75;;;7.88;89.96
16821;BME280;8527;49.740;6.604;2023-04-08T04:56:22;100281.16;;;7.93;89.05
16821;BME280;8527;49.740;6.604;2023-04-08T05:01:23;100284.09;;;7.90;89.53
16821;BME280;8527;49.740;6.604;2023-04-08T05:06:23;100280.47;;;7.91;89.98
16821;BME280;8527;49.740;6.604;2023-04-08T05:11:21;100292.28;;;7.87;90.25
16821;BME280;8527;49.740;6.604;2023-04-08T05:16:23;100296.84;;;7.75;91.10
16821;BME280;8527;49.740;6.604;2023-04-08T05:21:21;100301.44;;;7.83;90.85
16821;BME280;8527;49.740;6.604;2023-04-08T05:26:20;100297.84;;;7.84;90.23
16821;BME280;8527;49.740;6.604;2023-04-08T05:31:19;100300.34;;;7.95;89.29
16821;BME280;8527;49.740;6.604;2023-04-08T05:36:26;100309.00;;;7.97;89.38
16821;BME280;8527;49.740;6.604;2023-04-08T05:41:24;100308.56;;;7.92;89.98
16821;BME280;8527;49.740;6.604;2023-04-08T05:46:23;100310.78;;;7.97;89.72
16821;BME280;8527;49.740;6.604;2023-04-08T05:51:29;100316.63;;;8.00;89.44
16821;BME280;8527;49.740;6.604;2023-04-08T05:56:27;100325.25;;;8.02;88.60
16821;BME280;8527;49.740;6.604;2023-04-08T06:01:26;100322.47;;;8.14;88.77
16821;BME280;8527;49.740;6.604;2023-04-08T06:06:28;100332.78;;;8.17;88.84
16821;BME280;8527;49.740;6.604;2023-04-08T06:11:32;100333.75;;;8.16;88.65
16821;BME280;8527;49.740;6.604;2023-04-08T06:16:38;100329.44;;;8.35;88.02
16821;BME280;8527;49.740;6.604;2023-04-08T06:21:39;100331.41;;;8.42;87.67
16821;BME280;8527;49.740;6.604;2023-04-08T06:26:40;100335.84;;;8.42;87.11
16821;BME280;8527;49.740;6.604;2023-04-08T06:31:44;100336.13;;;8.58;86.95
16821;BME280;8527;49.740;6.604;2023-04-08T06:36:45;100353.66;;;8.69;85.77
16821;BME280;8527;49.740;6.604;2023-04-08T06:41:44;100346.28;;;8.83;85.41
16821;BME280;8527;49.740;6.604;2023-04-08T06:46:43;100346.09;;;8.84;85.63
16821;BME280;8527;49.740;6.604;2023-04-08T06:51:47;100352.66;;;8.90;84.77
16821;BME280;8527;49.740;6.604;2023-04-08T06:56:48;100360.44;;;8.92;84.65
16821;BME280;8527;49.740;6.604;2023-04-08T07:01:46;100361.09;;;9.04;84.75
16821;BME280;8527;49.740;6.604;2023-04-08T07:06:55;100364.63;;;8.94;83.85
16821;BME280;8527;49.740;6.604;2023-04-08T07:11:53;100380.88;;;9.09;84.07
16821;BME280;8527;49.740;6.604;2023-04-08T07:16:52;100380.97;;;9.27;83.60
16821;BME280;8527;49.740;6.604;2023-04-08T07:21:53;100387.56;;;9.13;83.66
16821;BME280;8527;49.740;6.604;2023-04-08T07:26:52;100380.34;;;9.06;84.08
16821;BME280;8527;49.740;6.604;2023-04-08T07:32:02;100389.09;;;9.54;83.32
16821;BME280;8527;49.740;6.604;2023-04-08T07:37:03;100384.47;;;10.12;81.77
16821;BME280;8527;49.740;6.604;2023-04-08T07:42:06;100389.53;;;10.23;79.14
16821;BME280;8527;49.740;6.604;2023-04-08T07:47:05;100388.94;;;10.11;79.05
16821;BME280;8527;49.740;6.604;2023-04-08T07:52:08;100393.91;;;10.24;77.89
16821;BME280;8527;49.740;6.604;2023-04-08T07:57:10;100395.69;;;10.24;78.67
16821;BME280;8527;49.740;6.604;2023-04-08T08:02:08;100393.13;;;10.14;78.38
16821;BME280;8527;49.740;6.604;2023-04-08T08:07:09;100403.38;;;9.99;78.94
16821;BME280;8527;49.740;6.604;2023-04-08T08:12:10;100411.97;;;9.83;78.97
16821;BME280;8527;49.740;6.604;2023-04-08T08:17:11;100408.63;;;9.81;80.01
16821;BME280;8527;49.740;6.604;2023-04-08T08:22:16;100413.06;;;9.62;79.32
16821;BME280;8527;49.740;6.604;2023-04-08T08:27:14;100413.44;;;9.67;79.57
16821;BME280;8527;49.740;6.604;2023-04-08T08:32:13;100420.72;;;9.93;79.17
16821;BME280;8527;49.740;6.604;2023-04-08T08:37:16;100416.28;;;9.84;78.86
16821;BME280;8527;49.740;6.604;2023-04-08T08:42:25;100429.16;;;10.07;78.79
16821;BME280;8527;49.740;6.604;2023-04-08T08:47:24;100433.72;;;9.87;79.03
16821;BME280;8527;49.740;6.604;2023-04-08T08:52:32;100419.44;;;9.97;78.58
16821;BME280;8527;49.740;6.604;2023-04-08T08:57:31;100440.53;;;10.17;77.19
16821;BME280;8527;49.740;6.604;2023-04-08T09:02:31;100444.41;;;10.23;77.00
16821;BME280;8527;49.740;6.604;2023-04-08T09:07:35;100453.13;;;10.15;76.93
16821;BME280;8527;49.740;6.604;2023-04-08T09:12:34;100464.72;;;10.14;77.05
16821;BME280;8527;49.740;6.604;2023-04-08T09:17:49;100461.84;;;10.25;77.06
16821;BME280;8527;49.740;6.604;2023-04-08T09:22:59;100457.56;;;10.14;76.88
16821;BME280;8527;49.740;6.604;2023-04-08T09:27:57;100448.94;;;10.59;75.25
16821;BME280;8527;49.740;6.604;2023-04-08T09:32:57;100451.00;;;10.83;74.25
16821;BME280;8527;49.740;6.604;2023-04-08T09:37:58;100453.13;;;10.79;74.90
16821;BME280;8527;49.740;6.604;2023-04-08T09:42:57;100443.78;;;10.93;74.64
16821;BME280;8527;49.740;6.604;2023-04-08T09:48:09;100453.63;;;11.01;73.71
16821;BME280;8527;49.740;6.604;2023-04-08T09:53:25;100442.41;;;11.34;72.49
16821;BME280;8527;49.740;6.604;2023-04-08T09:58:28;100448.63;;;12.12;70.60
16821;BME280;8527;49.740;6.604;2023-04-08T10:03:29;100437.53;;;12.25;69.58
16821;BME280;8527;49.740;6.604;2023-04-08T10:08:34;100441.16;;;12.16;68.71
16821;BME280;8527;49.740;6.604;2023-04-08T10:13:33;100437.44;;;12.68;67.55
16821;BME280;8527;49.740;6.604;2023-04-08T10:18:32;100432.25;;;12.66;67.54
16821;BME280;8527;49.740;6.604;2023-04-08T10:24:05;100432.22;;;13.41;65.00
16821;BME280;8527;49.740;6.604;2023-04-08T10:34:50;100425.44;;;14.18;62.53
16821;BME280;8527;49.740;6.604;2023-04-08T10:39:57;100421.41;;;13.26;63.65
16821;BME280;8527;49.740;6.604;2023-04-08T10:44:59;100419.63;;;14.15;63.08
16821;BME280;8527;49.740;6.604;2023-04-08T10:49:57;100420.81;;;13.72;62.01
16821;BME280;8527;49.740;6.604;2023-04-08T10:54:59;100412.19;;;15.33;60.40
16821;BME280;8527;49.740;6.604;2023-04-08T10:59:57;100418.31;;;15.04;58.42
16821;BME280;8527;49.740;6.604;2023-04-08T11:04:57;100411.66;;;14.61;59.25
16821;BME280;8527;49.740;6.604;2023-04-08T11:09:55;100399.25;;;15.07;60.12
16821;BME280;8527;49.740;6.604;2023-04-08T11:14:57;100400.84;;;15.31;57.26
16821;BME280;8527;49.740;6.604;2023-04-08T11:19:56;100390.75;;;14.42;59.13
16821;BME280;8527;49.740;6.604;2023-04-08T11:25:00;100386.53;;;14.94;57.75
16821;BME280;8527;49.740;6.604;2023-04-08T11:30:02;100387.59;;;14.85;58.01
16821;BME280;8527;49.740;6.604;2023-04-08T11:35:05;100378.75;;;14.84;57.16
16821;BME280;8527;49.740;6.604;2023-04-08T11:40:06;100375.09;;;15.75;56.88
16821;BME280;8527;49.740;6.604;2023-04-08T11:45:15;100369.41;;;15.18;56.71
16821;BME280;8527;49.740;6.604;2023-04-08T11:50:24;100363.50;;;14.93;56.79
16821;BME280;8527;49.740;6.604;2023-04-08T11:55:25;100365.13;;;15.69;55.69
16821;BME280;8527;49.740;6.604;2023-04-08T12:00:27;100360.41;;;15.86;54.97
16821;BME280;8527;49.740;6.604;2023-04-08T12:05:28;100362.06;;;16.02;54.69
16821;BME280;8527;49.740;6.604;2023-04-08T12:10:26;100358.59;;;15.57;53.47
16821;BME280;8527;49.740;6.604;2023-04-08T12:15:27;100352.09;;;15.14;54.31
16821;BME280;8527;49.740;6.604;2023-04-08T12:20:27;100351.84;;;15.61;54.27
16821;BME280;8527;49.740;6.604;2023-04-08T12:25:25;100350.50;;;16.02;54.38
16821;BME280;8527;49.740;6.604;2023-04-08T12:30:29;100343.13;;;16.26;53.49
16821;BME280;8527;49.740;6.604;2023-04-08T12:35:28;100352.78;;;15.68;51.67
16821;BME280;8527;49.740;6.604;2023-04-08T12:40:26;100347.53;;;14.85;54.51
16821;BME280;8527;49.740;6.604;2023-04-08T12:45:24;100358.94;;;14.55;56.26
16821;BME280;8527;49.740;6.604;2023-04-08T12:50:25;100351.16;;;14.92;55.76
16821;BME280;8527;49.740;6.604;2023-04-08T12:55:24;100359.44;;;14.35;57.83
16821;BME280;8527;49.740;6.604;2023-04-08T13:00:25;100371.00;;;13.64;60.98
16821;BME280;8527;49.740;6.604;2023-04-08T13:05:30;100365.09;;;13.37;62.79
16821;BME280;8527;49.740;6.604;2023-04-08T13:10:28;100372.13;;;13.22;63.71
16821;BME280;8527;49.740;6.604;2023-04-08T13:15:27;100369.00;;;13.10;64.38
16821;BME280;8527;49.740;6.604;2023-04-08T13:20:25;100374.97;;;13.12;65.08
16821;BME280;8527;49.740;6.604;2023-04-08T13:25:28;100376.66;;;13.05;64.82
16821;BME280;8527;49.740;6.604;2023-04-08T13:30:29;100373.47;;;13.09;64.62
16821;BME280;8527;49.740;6.604;2023-04-08T13:35:28;100373.28;;;13.19;65.08
16821;BME280;8527;49.740;6.604;2023-04-08T13:40:29;100371.97;;;13.07;64.41
16821;BME280;8527;49.740;6.604;2023-04-08T13:45:27;100370.31;;;13.14;63.58
16821;BME280;8527;49.740;6.604;2023-04-08T13:50:26;100367.75;;;13.37;63.41
16821;BME280;8527;49.740;6.604;2023-04-08T13:55:24;100368.75;;;13.53;63.15
16821;BME280;8527;49.740;6.604;2023-04-08T14:00:26;100362.19;;;13.64;61.57
16821;BME280;8527;49.740;6.604;2023-04-08T14:05:25;100363.84;;;13.65;60.49
16821;BME280;8527;49.740;6.604;2023-04-08T14:10:26;100356.75;;;13.41;60.42
16821;BME280;8527;49.740;6.604;2023-04-08T14:15:27;100358.28;;;13.75;59.43
16821;BME280;8527;49.740;6.604;2023-04-08T14:20:28;100353.06;;;14.13;58.49
16821;BME280;8527;49.740;6.604;2023-04-08T14:25:27;100361.47;;;14.02;57.92
16821;BME280;8527;49.740;6.604;2023-04-08T14:30:28;100346.97;;;14.28;57.56
16821;BME280;8527;49.740;6.604;2023-04-08T14:35:26;100347.88;;;13.88;57.81
16821;BME280;8527;49.740;6.604;2023-04-08T14:40:25;100350.16;;;14.00;57.27
16821;BME280;8527;49.740;6.604;2023-04-08T14:45:23;100341.03;;;14.41;55.83
16821;BME280;8527;49.740;6.604;2023-04-08T14:50:30;100345.09;;;13.82;54.65
16821;BME280;8527;49.740;6.604;2023-04-08T14:55:34;100343.19;;;14.22;55.08
16821;BME280;8527;49.740;6.604;2023-04-08T15:00:33;100337.94;;;14.05;54.10
16821;BME280;8527;49.740;6.604;2023-04-08T15:05:37;100334.69;;;13.95;53.91
16821;BME280;8527;49.740;6.604;2023-04-08T15:10:38;100344.69;;;13.93;54.11
16821;BME280;8527;49.740;6.604;2023-04-08T15:15:37;100342.13;;;14.08;54.15
16821;BME280;8527;49.740;6.604;2023-04-08T15:20:38;100344.56;;;13.86;54.28
16821;BME280;8527;49.740;6.604;2023-04-08T15:25:39;100354.34;;;13.62;54.39
16821;BME280;8527;49.740;6.604;2023-04-08T15:30:37;100349.00;;;13.71;53.66
16821;BME280;8527;49.740;6.604;2023-04-08T15:35:39;100353.59;;;13.85;53.79
16821;BME280;8527;49.740;6.604;2023-04-08T15:40:41;100343.91;;;13.84;54.95
16821;BME280;8527;49.740;6.604;2023-04-08T15:45:41;100356.50;;;13.67;54.56
16821;BME280;8527;49.740;6.604;2023-04-08T15:50:43;100361.59;;;13.45;54.55
16821;BME280;8527;49.740;6.604;2023-04-08T15:55:42;100346.94;;;13.49;54.95
16821;BME280;8527;49.740;6.604;2023-04-08T16:00:40;100358.91;;;13.45;55.27
16821;BME280;8527;49.740;6.604;2023-04-08T16:05:44;100362.41;;;13.37;54.97
16821;BME280;8527;49.740;6.604;2023-04-08T16:10:42;100368.94;;;13.27;55.41
16821;BME280;8527;49.740;6.604;2023-04-08T16:15:41;100368.41;;;13.40;55.84
16821;BME280;8527;49.740;6.604;2023-04-08T16:20:39;100366.63;;;13.23;55.74
16821;BME280;8527;49.740;6.604;2023-04-08T16:25:40;100372.16;;;13.05;56.00
16821;BME280;8527;49.740;6.604;2023-04-08T16:30:39;100374.50;;;13.08;55.66
16821;BME280;8527;49.740;6.604;2023-04-08T16:35:38;100383.31;;;13.01;56.34
16821;BME280;8527;49.740;6.604;2023-04-08T16:40:37;100378.31;;;13.06;56.31
16821;BME280;8527;49.740;6.604;2023-04-08T16:45:38;100387.16;;;12.98;56.97
16821;BME280;8527;49.740;6.604;2023-04-08T16:50:36;100396.81;;;12.83;57.70
16821;BME280;8527;49.740;6.604;2023-04-08T16:55:35;100394.00;;;12.84;58.31
16821;BME280;8527;49.740;6.604;2023-04-08T17:00:33;100395.66;;;12.93;58.47
16821;BME280;8527;49.740;6.604;2023-04-08T17:05:35;100404.50;;;12.77;58.97
16821;BME280;8527;49.740;6.604;2023-04-08T17:10:33;100397.00;;;12.64;59.85
16821;BME280;8527;49.740;6.604;2023-04-08T17:15:34;100399.47;;;12.58;60.51
16821;BME280;8527;49.740;6.604;2023-04-08T17:20:35;100400.47;;;12.57;60.93
16821;BME280;8527;49.740;6.604;2023-04-08T17:25:38;100413.97;;;12.47;61.00
16821;BME280;8527;49.740;6.604;2023-04-08T17:30:37;100404.28;;;12.37;61.28
16821;BME280;8527;49.740;6.604;2023-04-08T17:35:41;100401.63;;;12.37;61.81
16821;BME280;8527;49.740;6.604;2023-04-08T17:40:41;100409.25;;;12.32;62.08
16821;BME280;8527;49.740;6.604;2023-04-08T17:45:40;100403.59;;;12.27;62.63
16821;BME280;8527;49.740;6.604;2023-04-08T17:50:41;100413.41;;;12.18;62.81
16821;BME280;8527;49.740;6.604;2023-04-08T17:55:40;100415.53;;;12.15;63.31
16821;BME280;8527;49.740;6.604;2023-04-08T18:00:41;100416.84;;;12.02;65.92
16821;BME280;8527;49.740;6.604;2023-04-08T18:05:47;100421.53;;;12.08;65.46
16821;BME280;8527;49.740;6.604;2023-04-08T18:10:45;100431.06;;;11.85;68.82
16821;BME280;8527;49.740;6.604;2023-04-08T18:15:46;100440.16;;;11.82;66.70
16821;BME280;8527;49.740;6.604;2023-04-08T18:20:47;100436.31;;;11.76;67.46
16821;BME280;8527;49.740;6.604;2023-04-08T18:25:46;100444.94;;;11.70;66.51
16821;BME280;8527;49.740;6.604;2023-04-08T18:30:49;100457.00;;;11.56;67.38
16821;BME280;8527;49.740;6.604;2023-04-08T18:35:53;100463.16;;;11.57;67.59
16821;BME280;8527;49.740;6.604;2023-04-08T18:40:51;100465.56;;;11.50;67.62
16821;BME280;8527;49.740;6.604;2023-04-08T18:45:50;100475.31;;;11.41;66.63
16821;BME280;8527;49.740;6.604;2023-04-08T18:50:48;100479.91;;;11.31;66.98
16821;BME280;8527;49.740;6.604;2023-04-08T18:55:51;100484.84;;;11.25;67.04
16821;BME280;8527;49.740;6.604;2023-04-08T19:00:50;100485.84;;;11.24;67.55
16821;BME280;8527;49.740;6.604;2023-04-08T19:05:49;100493.06;;;11.14;67.51
16821;BME280;8527;49.740;6.604;2023-04-08T19:10:50;100495.41;;;11.17;68.02
16821;BME280;8527;49.740;6.604;2023-04-08T19:15:51;100491.63;;;11.20;68.07
16821;BME280;8527;49.740;6.604;2023-04-08T19:20:49;100496.50;;;11.06;68.57
16821;BME280;8527;49.740;6.604;2023-04-08T19:25:51;100497.16;;;10.90;68.70
16821;BME280;8527;49.740;6.604;2023-04-08T19:30:49;100503.78;;;10.86;69.49
16821;BME280;8527;49.740;6.604;2023-04-08T19:35:48;100517.72;;;10.88;70.82
16821;BME280;8527;49.740;6.604;2023-04-08T19:40:46;100522.72;;;10.73;70.75
16821;BME280;8527;49.740;6.604;2023-04-08T19:45:51;100519.00;;;10.66;71.31
16821;BME280;8527;49.740;6.604;2023-04-08T19:50:50;100517.38;;;10.55;73.75
16821;BME280;8527;49.740;6.604;2023-04-08T19:55:48;100520.28;;;10.34;73.55
16821;BME280;8527;49.740;6.604;2023-04-08T20:00:50;100519.72;;;10.30;74.80
16821;BME280;8527;49.740;6.604;2023-04-08T20:05:48;100528.91;;;10.08;75.46
16821;BME280;8527;49.740;6.604;2023-04-08T20:10:47;100531.34;;;9.91;75.85
16821;BME280;8527;49.740;6.604;2023-04-08T20:15:45;100534.00;;;9.91;75.25
16821;BME280;8527;49.740;6.604;2023-04-08T20:20:47;100531.09;;;9.84;76.19
16821;BME280;8527;49.740;6.604;2023-04-08T20:25:49;100535.16;;;9.79;76.50
16821;BME280;8527;49.740;6.604;2023-04-08T20:30:47;100537.28;;;9.65;78.60
16821;BME280;8527;49.740;6.604;2023-04-08T20:35:48;100540.47;;;9.59;77.78
16821;BME280;8527;49.740;6.604;2023-04-08T20:40:47;100540.38;;;9.41;78.80
16821;BME280;8527;49.740;6.604;2023-04-08T20:45:53;100533.97;;;9.43;77.76
16821;BME280;8527;49.740;6.604;2023-04-08T20:50:57;100532.88;;;9.36;77.93
16821;BME280;8527;49.740;6.604;2023-04-08T20:55:58;100534.25;;;9.40;77.21
16821;BME280;8527;49.740;6.604;2023-04-08T21:01:00;100536.09;;;9.20;78.33
16821;BME280;8527;49.740;6.604;2023-04-08T21:06:01;100533.16;;;9.13;79.41
16821;BME280;8527;49.740;6.604;2023-04-08T21:10:59;100538.44;;;9.04;79.55
16821;BME280;8527;49.740;6.604;2023-04-08T21:15:57;100541.94;;;9.04;78.07
16821;BME280;8527;49.740;6.604;2023-04-08T21:20:56;100543.72;;;8.84;80.84
16821;BME280;8527;49.740;6.604;2023-04-08T21:25:57;100537.72;;;8.72;79.67
16821;BME280;8527;49.740;6.604;2023-04-08T21:30:55;100542.69;;;8.55;80.62
16821;BME280;8527;49.740;6.604;2023-04-08T21:35:56;100531.94;;;8.47;81.78
16821;BME280;8527;49.740;6.604;2023-04-08T21:40:57;100530.09;;;8.38;82.64
16821;BME280;8527;49.740;6.604;2023-04-08T21:45:55;100538.81;;;8.19;83.08
16821;BME280;8527;49.740;6.604;2023-04-08T21:50:54;100531.16;;;8.15;83.34
16821;BME280;8527;49.740;6.604;2023-04-08T21:55:57;100536.09;;;8.09;83.50
16821;BME280;8527;49.740;6.604;2023-04-08T22:00:57;100535.38;;;7.97;84.31
16821;BME280;8527;49.740;6.604;2023-04-08T22:05:57;100528.22;;;7.87;81.88
16821;BME280;8527;49.740;6.604;2023-04-08T22:11:04;100540.69;;;7.76;84.12
16821;BME280;8527;49.740;6.604;2023-04-08T22:16:03;100545.00;;;7.77;83.82
16821;BME280;8527;49.740;6.604;2023-04-08T22:21:02;100544.09;;;7.66;83.79
16821;BME280;8527;49.740;6.604;2023-04-08T22:26:07;100537.81;;;7.57;85.81
16821;BME280;8527;49.740;6.604;2023-04-08T22:31:08;100533.97;;;7.50;84.48
16821;BME280;8527;49.740;6.604;2023-04-08T22:36:06;100530.53;;;7.50;85.26
16821;BME280;8527;49.740;6.604;2023-04-08T22:41:15;100531.16;;;7.42;85.46
16821;BME280;8527;49.740;6.604;2023-04-08T22:46:14;100538.38;;;7.40;84.23
16821;BME280;8527;49.740;6.604;2023-04-08T22:51:14;100536.50;;;7.09;85.86
16821;BME280;8527;49.740;6.604;2023-04-08T22:56:15;100542.28;;;6.92;87.58
16821;BME280;8527;49.740;6.604;2023-04-08T23:01:16;100532.78;;;7.00;87.58
16821;BME280;8527;49.740;6.604;2023-04-08T23:06:15;100538.00;;;6.79;88.34
16821;BME280;8527;49.740;6.604;2023-04-08T23:11:16;100538.84;;;6.80;86.40
16821;BME280;8527;49.740;6.604;2023-04-08T23:16:14;100527.75;;;6.65;86.83
16821;BME280;8527;49.740;6.604;2023-04-08T23:21:15;100527.81;;;6.74;87.75
16821;BME280;8527;49.740;6.604;2023-04-08T23:26:20;100530.03;;;6.58;87.85
16821;BME280;8527;49.740;6.604;2023-04-08T23:31:19;100537.72;;;6.50;89.25
16821;BME280;8527;49.740;6.604;2023-04-08T23:36:18;100536.38;;;6.55;89.28
16821;BME280;8527;49.740;6.604;2023-04-08T23:41:18;100537.25;;;6.33;89.25
16821;BME280;8527;49.740;6.604;2023-04-08T23:46:21;100539.06;;;6.32;90.12
16821;BME280;8527;49.740;6.604;2023-04-08T23:51:22;100537.00;;;6.25;89.18
16821;BME280;8527;49.740;6.604;2023-04-08T23:56:20;100531.03;;;6.11;89.51
